Time;durP1;ratioP1;P1;durP2;ratioP2;P2;SDS_P1;SDS_P2;PMS_P1;PMS_P2;Temp;Humidity;BMP_temperature;BMP_pressure;BME280_temperature;BME280_humidity;BME280_pressure;Samples;Min_cycle;Max_cycle;Signal;HPM_P1;HPM_P2
2022/12/29 00:01:55;;;;;;;12.68;3.10;;;;;;;5.97;92.40;97771.28;5042350;28;20051;-78
2022/12/29 00:04:20;;;;;;;2.78;2.13;;;;;;;5.85;92.69;97754.69;5025072;28;22170;-79
2022/12/29 00:06:45;;;;;;;4.95;2.72;;;;;;;5.93;92.90;97758.75;5047208;28;20124;-80
2022/12/29 00:09:12;;;;;;;6.10;2.65;;;;;;;5.89;92.69;97762.97;5040842;28;20037;-79
2022/12/29 00:11:38;;;;;;;5.75;3.10;;;;;;;5.91;92.45;97751.06;5041407;28;20029;-79
2022/12/29 00:16:48;;;;;;;7.60;2.92;;;;;;;5.91;93.07;97755.56;5047209;28;20031;-79
2022/12/29 00:35:53;;;;;;;4.15;3.42;;;;;;;5.94;93.01;97737.31;5046091;28;20112;-78
2022/12/29 00:44:06;;;;;;;2.80;2.55;;;;;;;5.92;93.64;97718.25;5047122;28;20056;-78
2022/12/29 00:46:33;;;;;;;7.07;3.53;;;;;;;6.00;93.41;97719.66;5044991;28;20374;-78
2022/12/29 00:51:43;;;;;;;6.15;2.83;;;;;;;6.09;92.85;97743.88;5051796;28;20166;-78
2022/12/29 00:54:10;;;;;;;3.55;2.42;;;;;;;6.04;93.08;97734.81;5030037;28;20097;-79
2022/12/29 00:56:36;;;;;;;7.03;3.53;;;;;;;6.07;93.56;97714.19;5042285;28;20029;-79
2022/12/29 00:59:03;;;;;;;2.75;2.53;;;;;;;6.12;93.21;97724.81;5045106;28;20792;-78
2022/12/29 01:01:29;;;;;;;5.38;2.90;;;;;;;6.15;93.42;97729.63;5045730;28;20025;-79
2022/12/29 01:03:55;;;;;;;8.50;3.35;;;;;;;6.11;92.95;97724.03;5048776;28;20396;-78
2022/12/29 01:06:20;;;;;;;4.40;3.47;;;;;;;6.17;93.25;97723.03;5041342;28;20033;-79
2022/12/29 01:08:45;;;;;;;5.30;3.63;;;;;;;6.12;93.51;97720.31;5046755;28;20025;-79
2022/12/29 01:11:12;;;;;;;4.55;2.97;;;;;;;6.23;92.64;97715.94;5033091;28;20461;-79
2022/12/29 01:13:40;;;;;;;2.38;1.98;;;;;;;6.14;93.17;97715.56;5042602;28;20025;-79
2022/12/29 01:16:06;;;;;;;5.30;3.70;;;;;;;6.17;92.98;97698.41;5047587;28;20557;-79
2022/12/29 01:18:32;;;;;;;4.93;3.15;;;;;;;6.14;93.48;97701.56;5046548;28;20029;-78
2022/12/29 01:21:05;;;;;;;3.65;2.78;;;;;;;6.18;94.35;97706.09;5048390;28;20056;-78
2022/12/29 01:23:32;;;;;;;4.53;3.13;;;;;;;6.21;94.12;97702.16;5047606;28;20036;-78
2022/12/29 01:26:07;;;;;;;5.20;3.60;;;;;;;6.12;94.12;97685.09;5049458;28;20068;-78
2022/12/29 01:28:32;;;;;;;4.75;3.25;;;;;;;6.25;93.67;97704.06;5047043;28;20044;-78
2022/12/29 01:31:00;;;;;;;5.05;3.90;;;;;;;6.19;93.64;97691.81;5045927;28;20033;-78
2022/12/29 01:33:26;;;;;;;4.93;3.88;;;;;;;6.24;93.12;97696.34;5033669;28;20032;-79
2022/12/29 01:35:51;;;;;;;4.93;3.92;;;;;;;6.23;94.03;97697.41;5047892;28;20055;-78
2022/12/29 01:38:16;;;;;;;6.35;3.28;;;;;;;6.29;93.72;97699.84;5044305;28;20110;-78
2022/12/29 01:40:46;;;;;;;6.00;3.08;;;;;;;6.29;93.96;97691.13;5046508;28;20033;-78
2022/12/29 01:43:14;;;;;;;6.43;3.33;;;;;;;6.29;93.94;97683.19;5048138;28;20025;-78
2022/12/29 01:45:47;;;;;;;4.22;3.72;;;;;;;6.36;93.99;97678.47;5047278;28;20025;-78
2022/12/29 01:48:13;;;;;;;4.80;3.25;;;;;;;6.34;93.63;97670.75;5052368;28;20059;-78
2022/12/29 01:50:50;;;;;;;3.22;2.75;;;;;;;6.34;94.17;97685.84;5051447;28;20032;-78
2022/12/29 01:53:20;;;;;;;4.07;3.67;;;;;;;6.36;94.17;97679.25;5041721;28;20028;-79
2022/12/29 01:55:51;;;;;;;3.47;3.15;;;;;;;6.38;93.58;97684.31;5044252;28;20060;-78
2022/12/29 01:58:21;;;;;;;6.28;3.60;;;;;;;6.37;93.48;97674.78;5045887;28;20036;-78
2022/12/29 02:00:47;;;;;;;4.93;3.10;;;;;;;6.40;93.79;97668.97;5045925;28;20074;-78
2022/12/29 02:03:13;;;;;;;4.95;3.65;;;;;;;6.50;93.66;97695.56;5042456;28;20096;-78
2022/12/29 02:05:41;;;;;;;6.25;3.33;;;;;;;6.52;94.37;97688.16;5039320;28;20388;-78
2022/12/29 02:08:08;;;;;;;5.05;3.20;;;;;;;6.57;93.53;97690.88;5039833;28;20074;-79
2022/12/29 02:10:36;;;;;;;6.22;3.60;;;;;;;6.56;93.73;97683.97;5044106;28;20372;-79
2022/12/29 02:13:01;;;;;;;7.40;3.28;;;;;;;6.56;93.63;97681.31;5049523;28;20178;-79
2022/12/29 02:15:56;;;;;;;6.53;3.58;;;;;;;6.64;93.45;97683.53;5041738;28;20558;-78
2022/12/29 02:18:35;;;;;;;4.97;3.47;;;;;;;6.61;93.77;97682.19;5044769;28;20035;-79
2022/12/29 02:21:39;;;;;;;4.35;2.85;;;;;;;6.67;92.98;97673.22;5041756;28;20060;-79
2022/12/29 02:24:42;;;;;;;3.83;2.50;;;;;;;6.69;93.46;97680.91;5041988;28;20030;-78
2022/12/29 02:27:11;;;;;;;6.90;3.75;;;;;;;6.70;93.52;97661.31;5047238;28;20391;-78
2022/12/29 02:30:07;;;;;;;4.18;3.03;;;;;;;6.72;93.45;97673.25;5049799;28;20017;-78
2022/12/29 02:32:53;;;;;;;2.75;1.98;;;;;;;6.69;93.55;97657.84;5048772;28;20044;-77
2022/12/29 02:35:43;;;;;;;4.35;2.97;;;;;;;6.75;93.63;97664.78;5044803;28;20029;-78
2022/12/29 02:38:46;;;;;;;4.03;3.20;;;;;;;6.72;93.60;97656.53;5046242;28;20082;-79
2022/12/29 02:41:21;;;;;;;4.43;2.90;;;;;;;6.71;93.53;97639.03;5042807;28;20048;-79
2022/12/29 02:44:13;;;;;;;3.75;2.50;;;;;;;6.80;93.62;97662.19;5043490;28;20036;-78
2022/12/29 02:46:43;;;;;;;4.75;3.10;;;;;;;6.86;93.25;97680.78;5043798;28;20024;-79
2022/12/29 02:49:19;;;;;;;3.10;2.70;;;;;;;6.82;92.82;97668.03;5049225;28;20120;-79
2022/12/29 02:51:59;;;;;;;4.25;3.20;;;;;;;6.85;93.74;97666.72;5043001;28;20075;-79
2022/12/29 02:54:41;;;;;;;5.78;2.95;;;;;;;6.78;93.60;97652.88;5045022;28;20025;-79
2022/12/29 02:57:15;;;;;;;2.88;2.35;;;;;;;6.82;94.48;97641.50;5030606;28;20029;-79
2022/12/29 02:59:43;;;;;;;2.45;1.90;;;;;;;6.86;94.06;97648.97;5040992;28;20036;-79
2022/12/29 03:02:39;;;;;;;8.02;3.05;;;;;;;6.90;93.97;97653.50;5043975;28;20530;-79
2022/12/29 03:05:51;;;;;;;4.07;2.83;;;;;;;6.85;94.31;97656.13;5046781;28;20047;-78
2022/12/29 03:08:44;;;;;;;3.25;2.60;;;;;;;6.81;93.82;97647.06;5042333;28;20052;-79
2022/12/29 03:16:57;;;;;;;3.78;2.60;;;;;;;6.80;93.93;97625.06;5040909;28;20616;-77
2022/12/29 03:19:47;;;;;;;2.95;2.28;;;;;;;6.85;93.87;97613.69;5048607;28;20439;-78
2022/12/29 03:22:30;;;;;;;4.78;2.95;;;;;;;6.78;94.15;97599.84;5046817;28;20177;-77
2022/12/29 03:25:10;;;;;;;3.25;2.78;;;;;;;6.75;94.48;97600.34;5043135;28;20025;-78
2022/12/29 03:27:43;;;;;;;3.75;2.45;;;;;;;6.80;94.55;97608.34;5041430;28;20028;-78
2022/12/29 03:30:10;;;;;;;4.43;2.65;;;;;;;6.77;94.19;97603.56;5040420;28;20059;-78
2022/12/29 03:32:41;;;;;;;3.90;2.67;;;;;;;6.74;94.31;97606.72;5044470;28;20037;-78
2022/12/29 03:35:10;;;;;;;2.63;2.42;;;;;;;6.75;94.27;97616.25;5041701;28;20063;-78
2022/12/29 03:37:40;;;;;;;4.32;2.30;;;;;;;6.76;94.84;97607.25;5026187;28;20021;-79
2022/12/29 03:40:06;;;;;;;3.05;2.33;;;;;;;6.80;94.57;97603.84;5045073;28;20040;-78
2022/12/29 03:42:35;;;;;;;2.83;2.35;;;;;;;6.77;94.23;97599.03;5041421;28;20083;-78
2022/12/29 03:45:00;;;;;;;4.57;2.83;;;;;;;6.71;94.32;97593.94;5048164;28;20025;-78
2022/12/29 03:47:25;;;;;;;5.13;1.48;;;;;;;6.63;94.30;97599.72;5017035;28;20679;-78
2022/12/29 03:49:52;;;;;;;5.22;2.50;;;;;;;6.75;95.25;97597.69;5040385;28;20037;-78
2022/12/29 03:52:17;;;;;;;5.07;2.28;;;;;;;6.76;94.54;97594.00;5047571;28;20140;-78
2022/12/29 03:54:43;;;;;;;2.40;2.17;;;;;;;6.74;94.52;97588.97;5043685;28;20112;-78
2022/12/29 03:57:09;;;;;;;3.17;2.40;;;;;;;6.80;94.61;97589.78;5045616;28;20040;-78
2022/12/29 03:59:35;;;;;;;3.33;1.70;;;;;;;6.80;94.22;97584.47;5024463;28;20037;-78
2022/12/29 04:02:00;;;;;;;2.45;2.15;;;;;;;6.79;94.56;97566.97;5022145;28;20040;-77
2022/12/29 04:04:26;;;;;;;2.53;1.95;;;;;;;6.78;94.54;97594.53;5043113;28;20033;-78
2022/12/29 04:06:51;;;;;;;2.08;1.88;;;;;;;6.80;94.66;97606.50;5040980;28;20080;-78
2022/12/29 04:09:16;;;;;;;6.20;2.20;;;;;;;6.82;94.33;97600.94;5047126;28;20061;-79
2022/12/29 04:11:42;;;;;;;1.88;1.73;;;;;;;6.83;94.42;97597.22;5043866;28;20039;-78
2022/12/29 04:14:07;;;;;;;1.60;1.50;;;;;;;6.78;94.45;97592.69;5040840;28;20116;-79
2022/12/29 04:16:35;;;;;;;3.00;2.28;;;;;;;6.84;95.04;97596.16;5027527;28;20574;-77
2022/12/29 04:19:03;;;;;;;2.92;1.80;;;;;;;6.85;95.16;97579.22;5022501;28;20029;-78
2022/12/29 04:21:28;;;;;;;1.83;1.55;;;;;;;6.83;94.47;97583.97;5023645;28;20078;-77
2022/12/29 04:23:54;;;;;;;2.15;1.65;;;;;;;6.79;94.80;97582.88;5033138;28;20090;-78
2022/12/29 04:26:19;;;;;;;1.85;1.38;;;;;;;6.81;94.46;97586.88;5049952;28;20044;-77
2022/12/29 04:28:44;;;;;;;2.97;2.13;;;;;;;6.80;94.47;97593.22;5046537;28;20027;-78
2022/12/29 04:31:10;;;;;;;3.85;1.92;;;;;;;6.81;94.84;97580.78;5017899;28;20040;-79
2022/12/29 04:33:35;;;;;;;2.80;2.00;;;;;;;6.90;94.35;97595.16;5032510;28;20055;-79
2022/12/29 04:36:01;;;;;;;4.50;1.95;;;;;;;6.81;94.16;97596.69;5032091;28;20025;-78
2022/12/29 04:38:26;;;;;;;2.00;1.80;;;;;;;6.81;95.53;97596.69;5048039;28;20026;-78
2022/12/29 04:40:52;;;;;;;2.10;1.85;;;;;;;6.84;94.60;97595.38;5026645;28;20037;-79
2022/12/29 04:43:19;;;;;;;4.03;1.98;;;;;;;6.88;95.02;97599.91;5029701;28;20033;-78
2022/12/29 04:45:46;;;;;;;1.83;1.63;;;;;;;6.81;94.74;97594.81;5050531;28;20017;-78
2022/12/29 04:48:12;;;;;;;1.77;1.38;;;;;;;6.85;94.79;97591.66;5044446;28;20029;-79
2022/12/29 04:50:38;;;;;;;3.58;2.10;;;;;;;6.86;95.71;97582.66;5047938;28;20375;-79
2022/12/29 04:53:04;;;;;;;2.05;1.73;;;;;;;6.80;94.37;97579.16;5050485;28;20033;-79
2022/12/29 04:55:29;;;;;;;2.35;1.60;;;;;;;6.81;94.82;97583.44;5023529;28;20029;-78
2022/12/29 04:57:55;;;;;;;3.58;1.48;;;;;;;6.78;95.30;97599.84;5028847;28;20469;-77
2022/12/29 05:00:20;;;;;;;3.33;1.90;;;;;;;6.82;95.20;97593.78;5048088;28;20065;-79
2022/12/29 05:02:45;;;;;;;2.83;1.40;;;;;;;6.78;94.75;97591.88;5046375;28;20098;-78
2022/12/29 05:05:11;;;;;;;1.90;1.77;;;;;;;6.81;95.53;97605.41;5046720;28;20028;-79
2022/12/29 05:07:36;;;;;;;2.28;1.42;;;;;;;6.82;95.81;97598.28;5047188;28;20071;-78
2022/12/29 05:10:02;;;;;;;2.97;1.63;;;;;;;6.83;95.59;97599.88;5043689;28;20029;-78
2022/12/29 05:12:32;;;;;;;2.42;2.03;;;;;;;6.83;95.53;97589.28;5040451;28;20447;-78
2022/12/29 05:14:57;;;;;;;1.27;1.25;;;;;;;6.82;95.47;97588.47;5047893;28;20496;-78
2022/12/29 05:17:22;;;;;;;1.73;1.50;;;;;;;6.78;95.79;97584.75;5046071;28;20029;-79
2022/12/29 05:19:48;;;;;;;3.22;1.88;;;;;;;6.78;95.78;97597.19;5032480;28;20033;-78
2022/12/29 05:22:14;;;;;;;2.35;2.15;;;;;;;6.77;95.95;97582.34;5030889;28;20029;-79
2022/12/29 05:24:39;;;;;;;2.50;2.08;;;;;;;6.79;96.15;97588.19;5047291;28;20044;-78
2022/12/29 05:27:05;;;;;;;4.82;2.88;;;;;;;6.77;96.02;97585.78;5044301;28;20061;-78
2022/12/29 05:29:30;;;;;;;2.42;2.22;;;;;;;6.73;96.10;97573.28;5041469;28;20078;-78
2022/12/29 05:31:55;;;;;;;2.55;2.30;;;;;;;6.85;96.28;97576.56;5038488;28;20127;-78
2022/12/29 05:34:21;;;;;;;1.75;1.58;;;;;;;6.84;96.46;97572.28;5042881;28;20029;-78
2022/12/29 05:36:46;;;;;;;1.52;1.42;;;;;;;6.85;95.72;97592.47;5030977;28;20040;-78
2022/12/29 05:39:12;;;;;;;2.05;1.55;;;;;;;6.81;95.90;97578.13;5026527;28;20030;-78
2022/12/29 05:41:37;;;;;;;2.78;1.58;;;;;;;6.78;96.10;97575.97;5049535;28;20041;-78
2022/12/29 05:44:02;;;;;;;2.30;1.85;;;;;;;6.79;96.33;97564.31;5045374;28;20040;-78
2022/12/29 05:46:28;;;;;;;1.92;1.70;;;;;;;6.80;96.62;97574.66;5046991;28;20041;-78
2022/12/29 05:48:53;;;;;;;2.40;1.45;;;;;;;6.76;96.12;97572.78;5044620;28;20029;-78
2022/12/29 05:51:19;;;;;;;2.40;1.58;;;;;;;6.81;96.31;97586.09;5044621;28;20653;-77
2022/12/29 05:53:44;;;;;;;1.48;1.38;;;;;;;6.79;96.32;97583.66;5049083;28;20120;-77
2022/12/29 05:56:09;;;;;;;1.40;1.30;;;;;;;6.82;96.76;97585.00;5045021;28;20374;-76
2022/12/29 05:58:35;;;;;;;2.72;1.77;;;;;;;6.92;96.10;97579.78;5040100;28;20045;-77
2022/12/29 06:01:00;;;;;;;1.33;1.17;;;;;;;6.89;95.63;97590.91;5044457;28;20029;-78
2022/12/29 06:03:26;;;;;;;5.72;2.45;;;;;;;6.91;96.38;97602.06;5031117;28;20033;-79
2022/12/29 06:05:51;;;;;;;1.67;1.40;;;;;;;6.90;95.99;97575.78;5046854;28;20128;-79
2022/12/29 06:08:16;;;;;;;2.22;1.42;;;;;;;6.91;95.73;97580.03;5048513;28;20056;-79
2022/12/29 06:10:42;;;;;;;5.22;1.33;;;;;;;6.92;96.03;97560.44;5013664;28;24038;-79
2022/12/29 06:13:07;;;;;;;4.20;1.15;;;;;;;6.91;95.80;97567.56;5038309;28;20037;-79
2022/12/29 06:15:33;;;;;;;4.57;1.23;;;;;;;6.91;95.60;97574.72;5048884;28;20021;-79
2022/12/29 06:17:59;;;;;;;1.13;1.08;;;;;;;6.97;95.89;97553.28;5050071;28;20029;-79
2022/12/29 06:20:24;;;;;;;1.52;1.30;;;;;;;7.00;96.59;97555.44;5047827;28;20037;-80
2022/12/29 06:22:50;;;;;;;2.15;1.50;;;;;;;7.03;95.76;97565.53;5047162;28;20032;-78
2022/12/29 06:25:15;;;;;;;2.05;0.90;;;;;;;7.04;95.62;97569.78;5041482;28;20037;-78
2022/12/29 06:27:41;;;;;;;2.58;0.98;;;;;;;7.04;96.15;97571.63;5049000;28;20061;-80
2022/12/29 06:30:07;;;;;;;0.85;0.85;;;;;;;7.00;96.28;97565.25;5047966;28;20071;-78
2022/12/29 06:32:33;;;;;;;1.13;0.90;;;;;;;7.03;96.62;97578.81;5048871;28;20048;-78
2022/12/29 06:34:59;;;;;;;2.33;1.40;;;;;;;7.03;95.98;97578.00;5046622;28;20025;-78
2022/12/29 06:37:24;;;;;;;0.70;0.70;;;;;;;6.98;96.41;97583.25;5042058;28;20552;-79
2022/12/29 06:39:50;;;;;;;1.35;1.20;;;;;;;7.00;95.70;97579.31;5043122;28;20132;-78
2022/12/29 06:42:15;;;;;;;1.02;1.02;;;;;;;6.99;95.72;97576.91;5027608;28;20056;-79
2022/12/29 06:44:40;;;;;;;1.90;0.90;;;;;;;6.96;95.68;97575.56;5051182;28;20033;-78
2022/12/29 06:47:06;;;;;;;2.97;1.35;;;;;;;6.99;96.32;97583.00;5041719;28;20040;-78
2022/12/29 06:49:31;;;;;;;1.95;1.00;;;;;;;6.95;96.14;97581.91;5044178;28;20043;-78
2022/12/29 06:51:58;;;;;;;1.23;1.13;;;;;;;6.96;96.33;97586.19;5027372;28;20064;-78
2022/12/29 06:54:23;;;;;;;2.35;1.50;;;;;;;7.01;96.46;97586.19;5039500;28;20036;-79
2022/12/29 06:56:48;;;;;;;1.95;1.17;;;;;;;6.99;96.10;97580.34;5039166;28;20025;-79
2022/12/29 06:59:14;;;;;;;1.33;1.23;;;;;;;7.00;95.82;97589.13;5032739;28;20440;-79
2022/12/29 07:01:39;;;;;;;1.70;1.20;;;;;;;7.01;96.16;97594.16;5026446;28;20025;-78
2022/12/29 07:04:05;;;;;;;5.43;1.45;;;;;;;6.97;95.64;97595.72;5024622;28;20037;-79
2022/12/29 07:06:30;;;;;;;2.72;1.65;;;;;;;7.01;96.22;97612.72;5038732;28;20393;-79
2022/12/29 07:08:57;;;;;;;1.65;1.10;;;;;;;7.02;96.17;97608.22;5045791;28;20064;-79
2022/12/29 07:11:23;;;;;;;1.30;1.20;;;;;;;7.06;96.36;97598.69;5043715;28;20025;-79
2022/12/29 07:13:49;;;;;;;1.83;1.50;;;;;;;6.96;95.88;97599.44;5024383;28;20033;-78
2022/12/29 07:16:14;;;;;;;2.05;1.83;;;;;;;6.98;96.82;97588.56;5043978;28;20033;-79
2022/12/29 07:18:39;;;;;;;2.33;2.20;;;;;;;6.98;96.40;97591.22;5022348;28;20393;-79
2022/12/29 07:21:05;;;;;;;2.58;1.85;;;;;;;7.03;96.32;97605.34;5045412;28;20167;-79
2022/12/29 07:23:30;;;;;;;2.92;2.28;;;;;;;7.02;96.15;97602.91;5028558;28;20112;-79
2022/12/29 07:26:05;;;;;;;4.60;2.63;;;;;;;7.05;96.87;97607.72;5039335;28;20033;-78
2022/12/29 07:28:32;;;;;;;6.30;3.03;;;;;;;7.05;96.19;97613.03;5044789;28;20072;-78
2022/12/29 07:30:57;;;;;;;2.72;2.28;;;;;;;7.06;96.53;97602.16;5036376;28;20079;-78
2022/12/29 07:33:23;;;;;;;2.60;2.38;;;;;;;7.10;96.31;97608.53;5022871;28;20464;-79
2022/12/29 07:35:48;;;;;;;4.47;2.72;;;;;;;7.08;96.22;97618.59;5036513;28;20456;-78
2022/12/29 07:38:14;;;;;;;5.65;3.30;;;;;;;7.09;96.35;97606.16;5037678;28;20074;-79
2022/12/29 07:40:40;;;;;;;6.90;3.33;;;;;;;7.17;96.53;97613.63;5036062;28;20105;-79
2022/12/29 07:43:05;;;;;;;3.25;2.33;;;;;;;7.12;96.35;97593.16;5041439;28;20025;-79
2022/12/29 07:45:30;;;;;;;7.57;3.17;;;;;;;7.08;96.73;97596.56;5042006;28;20036;-78
2022/12/29 07:47:56;;;;;;;3.20;2.70;;;;;;;7.08;96.00;97591.28;5027994;28;20381;-79
2022/12/29 07:50:21;;;;;;;3.60;2.67;;;;;;;7.12;96.83;97606.41;5024651;28;20045;-78
2022/12/29 07:52:47;;;;;;;2.30;2.10;;;;;;;7.19;96.61;97608.84;5022369;28;20055;-78
2022/12/29 07:55:14;;;;;;;4.10;2.90;;;;;;;7.21;96.34;97614.69;5040914;28;20063;-79
2022/12/29 07:57:39;;;;;;;4.35;2.58;;;;;;;7.22;96.28;97619.78;5042559;28;20025;-78
2022/12/29 08:00:05;;;;;;;6.25;2.67;;;;;;;7.24;96.60;97638.88;5042263;28;20024;-78
2022/12/29 08:02:33;;;;;;;3.65;3.00;;;;;;;7.21;96.80;97642.03;5043886;28;20052;-79
2022/12/29 08:04:58;;;;;;;5.90;2.20;;;;;;;7.18;97.27;97634.59;5023588;28;20152;-79
2022/12/29 08:07:24;;;;;;;5.22;2.20;;;;;;;7.22;97.68;97632.22;5037189;28;20023;-77
2022/12/29 08:09:49;;;;;;;4.07;2.33;;;;;;;7.14;98.21;97630.84;5040228;28;20045;-79
2022/12/29 08:12:14;;;;;;;5.93;3.10;;;;;;;7.20;98.59;97634.34;5040342;28;20036;-79
2022/12/29 08:14:40;;;;;;;3.40;2.80;;;;;;;7.18;99.03;97633.81;5046403;28;20067;-79
2022/12/29 08:17:05;;;;;;;4.03;2.75;;;;;;;7.18;98.52;97637.25;5041202;28;20469;-80
2022/12/29 08:19:31;;;;;;;6.00;3.47;;;;;;;7.30;98.62;97642.34;5039028;28;20477;-80
2022/12/29 08:21:56;;;;;;;6.10;3.00;;;;;;;7.27;97.99;97646.31;5036478;28;20041;-80
2022/12/29 08:24:21;;;;;;;5.10;3.40;;;;;;;7.20;98.18;97647.59;5020363;28;20120;-80
2022/12/29 08:26:47;;;;;;;6.65;4.05;;;;;;;7.22;98.60;97643.66;5020017;28;20524;-80
2022/12/29 08:29:12;;;;;;;5.28;2.72;;;;;;;7.16;99.16;97652.63;5002241;28;20478;-81
2022/12/29 08:31:37;;;;;;;5.93;4.15;;;;;;;7.27;98.95;97646.31;5037161;28;20033;-80
2022/12/29 08:34:03;;;;;;;6.40;3.78;;;;;;;7.27;98.42;97640.22;5037505;28;20595;-79
2022/12/29 08:36:30;;;;;;;4.55;3.55;;;;;;;7.26;98.76;97651.88;5044475;28;20034;-79
2022/12/29 08:38:56;;;;;;;5.57;3.10;;;;;;;7.31;98.92;97643.97;5054235;28;20366;-79
2022/12/29 08:41:21;;;;;;;3.65;3.20;;;;;;;7.36;98.33;97636.81;5055437;22;20044;-76
2022/12/29 08:43:47;;;;;;;10.25;4.28;;;;;;;7.42;97.97;97640.31;5038767;28;20520;-77
2022/12/29 08:46:13;;;;;;;3.60;2.40;;;;;;;7.39;99.22;97652.25;5037680;28;20047;-77
2022/12/29 08:48:38;;;;;;;5.18;2.95;;;;;;;7.49;99.04;97651.50;5043368;28;20052;-77
2022/12/29 08:51:04;;;;;;;5.55;2.80;;;;;;;7.50;99.21;97669.03;5031287;28;20041;-77
2022/12/29 08:53:29;;;;;;;3.47;2.85;;;;;;;7.47;99.10;97670.31;5029414;28;20398;-76
2022/12/29 08:55:57;;;;;;;6.07;4.63;;;;;;;7.41;99.80;97674.00;5029735;28;20037;-77
2022/12/29 08:58:22;;;;;;;4.97;3.60;;;;;;;7.37;99.23;97702.13;5023048;28;20025;-78
2022/12/29 09:00:48;;;;;;;5.20;2.83;;;;;;;7.35;99.74;97732.63;5021252;28;20037;-79
2022/12/29 09:03:13;;;;;;;4.13;3.72;;;;;;;7.27;100.00;97707.34;5023819;28;20417;-78
2022/12/29 09:05:38;;;;;;;4.60;2.83;;;;;;;7.19;100.00;97681.31;5023960;28;20038;-78
2022/12/29 09:08:04;;;;;;;7.05;2.80;;;;;;;7.14;100.00;97683.13;5023408;28;20038;-78
2022/12/29 09:10:30;;;;;;;2.95;2.03;;;;;;;7.13;100.00;97670.91;5027854;28;20517;-77
2022/12/29 09:12:55;;;;;;;2.45;2.20;;;;;;;7.08;100.00;97681.47;5027729;28;20033;-77
2022/12/29 09:15:20;;;;;;;2.92;1.70;;;;;;;6.98;99.63;97687.53;5023949;28;20030;-76
2022/12/29 09:17:46;;;;;;;2.08;1.45;;;;;;;6.96;99.86;97671.06;5027337;28;20037;-77
2022/12/29 09:20:17;;;;;;;3.63;2.72;;;;;;;6.86;99.53;97668.31;5027346;28;20842;-78
2022/12/29 09:22:43;;;;;;;1.80;1.42;;;;;;;6.80;99.75;97666.69;5026514;28;20378;-77
2022/12/29 09:25:09;;;;;;;1.80;1.30;;;;;;;6.78;98.98;97671.44;5009431;28;20037;-78
2022/12/29 09:27:35;;;;;;;0.73;0.68;;;;;;;6.78;98.93;97672.25;5025248;28;20041;-78
2022/12/29 09:30:01;;;;;;;1.10;0.63;;;;;;;6.75;98.77;97674.59;5029673;28;20041;-77
2022/12/29 09:32:27;;;;;;;1.20;1.00;;;;;;;6.74;99.03;97673.81;5033168;28;20025;-76
2022/12/29 09:34:52;;;;;;;1.45;0.88;;;;;;;6.82;98.42;97668.03;5029997;28;20083;-77
2022/12/29 09:37:18;;;;;;;0.77;0.77;;;;;;;6.81;98.66;97684.19;5031556;28;20506;-76
2022/12/29 09:39:43;;;;;;;0.80;0.80;;;;;;;6.85;98.39;97679.19;5030876;28;20033;-76
2022/12/29 09:42:19;;;;;;;1.02;1.02;;;;;;;6.89;98.92;97689.03;5024866;28;20545;-74
2022/12/29 09:44:56;;;;;;;0.98;0.98;;;;;;;6.95;98.13;97684.56;5024330;28;20032;-77
2022/12/29 09:47:23;;;;;;;2.78;0.80;;;;;;;6.89;98.68;97681.06;5026157;28;20123;-76
2022/12/29 09:50:01;;;;;;;0.82;0.80;;;;;;;6.88;98.85;97671.50;5024437;28;20079;-76
2022/12/29 09:52:31;;;;;;;1.02;0.90;;;;;;;6.95;98.16;97680.06;5025377;28;20021;-75
2022/12/29 09:55:01;;;;;;;0.70;0.70;;;;;;;6.95;98.26;97680.06;5025184;28;20106;-77
2022/12/29 09:57:37;;;;;;;0.95;0.75;;;;;;;7.02;97.74;97688.59;5025084;28;20079;-76
2022/12/29 10:00:13;;;;;;;0.50;0.50;;;;;;;7.04;98.61;97685.69;5021836;28;20029;-76
2022/12/29 10:02:45;;;;;;;1.08;0.70;;;;;;;7.06;98.17;97688.88;5030120;28;20025;-76
2022/12/29 10:05:20;;;;;;;2.40;1.20;;;;;;;7.06;98.15;97683.59;5028184;28;20033;-75
2022/12/29 10:07:55;;;;;;;1.00;0.90;;;;;;;6.98;98.22;97678.75;5024930;28;20026;-75
2022/12/29 10:10:37;;;;;;;1.00;0.90;;;;;;;7.05;97.80;97684.66;5021909;28;20033;-75
2022/12/29 10:13:54;;;;;;;1.42;1.08;;;;;;;6.97;98.53;97675.28;5027452;28;20108;-76
2022/12/29 10:17:00;;;;;;;2.58;1.50;;;;;;;7.02;98.42;97680.66;5024503;28;20118;-77
2022/12/29 10:19:43;;;;;;;1.48;1.25;;;;;;;7.07;98.21;97677.25;5017312;28;20394;-76
2022/12/29 10:22:15;;;;;;;1.58;1.48;;;;;;;7.02;99.16;97670.03;5016473;28;20029;-75
2022/12/29 10:24:44;;;;;;;2.30;1.23;;;;;;;7.06;99.05;97668.47;5019367;28;20057;-77
2022/12/29 10:27:16;;;;;;;2.70;1.67;;;;;;;7.06;99.66;97672.97;5022561;28;20568;-77
2022/12/29 10:30:11;;;;;;;3.28;1.95;;;;;;;7.12;99.17;97678.06;5020855;28;20052;-76
2022/12/29 10:32:54;;;;;;;4.65;1.90;;;;;;;7.26;99.92;97684.53;5019789;28;20063;-76
2022/12/29 10:35:21;;;;;;;2.13;1.73;;;;;;;7.14;100.00;97681.25;5021815;28;20030;-76
2022/12/29 10:38:05;;;;;;;1.70;1.50;;;;;;;7.09;99.41;97667.16;5026077;28;20021;-76
2022/12/29 10:41:02;;;;;;;1.67;1.58;;;;;;;7.17;100.00;97688.72;5024644;28;20398;-76
2022/12/29 10:43:28;;;;;;;1.20;1.10;;;;;;;7.14;99.46;97691.09;5020169;28;20025;-76
2022/12/29 10:45:57;;;;;;;3.42;1.63;;;;;;;7.09;99.33;97685.75;5025053;28;20155;-76
2022/12/29 10:48:28;;;;;;;1.30;1.20;;;;;;;7.21;99.88;97692.47;5024957;28;20065;-75
2022/12/29 10:50:56;;;;;;;3.10;1.27;;;;;;;7.21;99.30;97697.75;5027960;28;20053;-76
2022/12/29 10:53:26;;;;;;;4.75;2.35;;;;;;;7.30;99.54;97687.47;5023068;28;20025;-77
2022/12/29 10:55:53;;;;;;;1.92;1.38;;;;;;;7.31;98.71;97689.88;5029768;28;20081;-76
2022/12/29 10:58:19;;;;;;;1.92;1.40;;;;;;;7.35;98.64;97682.19;5022210;28;20386;-77
2022/12/29 11:00:53;;;;;;;1.85;1.02;;;;;;;7.42;98.39;97683.59;5022264;28;20319;-75
2022/12/29 11:03:42;;;;;;;4.45;1.20;;;;;;;7.55;97.70;97674.38;5024276;28;20108;-76
2022/12/29 11:06:13;;;;;;;2.25;2.08;;;;;;;7.52;97.65;97690.78;5026293;28;20025;-75
2022/12/29 11:08:46;;;;;;;5.60;1.67;;;;;;;7.51;98.40;97668.75;5022577;28;20026;-77
2022/12/29 11:11:23;;;;;;;1.65;1.50;;;;;;;7.61;98.01;97670.66;5024833;28;20033;-76
2022/12/29 11:13:51;;;;;;;3.17;1.35;;;;;;;7.65;97.05;97668.28;5028955;28;20030;-76
2022/12/29 11:16:32;;;;;;;1.58;1.25;;;;;;;7.68;97.08;97657.16;5028863;28;20121;-76
2022/12/29 11:18:58;;;;;;;3.08;1.55;;;;;;;7.70;97.29;97677.09;5025814;28;20098;-77
2022/12/29 11:21:39;;;;;;;1.33;1.23;;;;;;;7.71;96.99;97681.34;5028460;28;20095;-76
2022/12/29 11:24:18;;;;;;;5.85;1.30;;;;;;;7.61;96.75;97664.56;5036497;28;20036;-77
2022/12/29 11:26:44;;;;;;;2.38;1.42;;;;;;;7.74;96.06;97680.81;5025197;28;20084;-75
2022/12/29 11:29:15;;;;;;;1.20;1.10;;;;;;;7.72;96.70;97676.81;5023302;28;20041;-74
2022/12/29 11:31:42;;;;;;;3.90;1.52;;;;;;;7.74;96.35;97677.38;5023514;28;20030;-75
2022/12/29 11:34:08;;;;;;;1.67;1.58;;;;;;;7.71;95.76;97670.72;5026970;28;20083;-75
2022/12/29 11:36:35;;;;;;;2.47;1.30;;;;;;;7.65;95.77;97671.75;5023845;28;20036;-74
2022/12/29 11:39:02;;;;;;;3.70;1.90;;;;;;;7.78;95.99;97686.41;5027632;28;20036;-75
2022/12/29 11:41:30;;;;;;;2.80;1.33;;;;;;;8.02;94.92;97682.25;5021848;28;20409;-75
2022/12/29 11:43:59;;;;;;;2.30;1.50;;;;;;;7.94;93.41;97688.91;5022019;28;20749;-75
2022/12/29 11:46:33;;;;;;;1.50;1.02;;;;;;;7.82;94.86;97688.28;5027087;28;20049;-75
2022/12/29 11:49:01;;;;;;;4.00;1.53;;;;;;;7.74;95.23;97677.38;5020880;28;20048;-74
2022/12/29 11:51:49;;;;;;;2.78;1.35;;;;;;;7.81;94.65;97688.56;5020377;28;20776;-72
2022/12/29 11:54:25;;;;;;;3.60;1.45;;;;;;;7.76;94.74;97685.88;5021311;28;20037;-74
2022/12/29 11:56:51;;;;;;;2.88;1.90;;;;;;;7.75;95.00;97698.38;5020015;28;20389;-75
2022/12/29 11:59:36;;;;;;;3.72;1.65;;;;;;;7.81;94.50;97700.00;5024527;28;20036;-75
2022/12/29 12:02:10;;;;;;;1.95;1.42;;;;;;;7.72;94.84;97701.53;5026158;28;20039;-75
2022/12/29 12:04:38;;;;;;;2.78;1.10;;;;;;;7.73;94.13;97716.44;5025576;28;20112;-75
2022/12/29 12:07:15;;;;;;;4.55;1.08;;;;;;;7.78;93.45;97691.72;5023673;28;20037;-75
2022/12/29 12:09:49;;;;;;;1.80;1.15;;;;;;;7.73;93.63;97711.13;5028770;28;20520;-75
2022/12/29 12:12:38;;;;;;;2.80;1.30;;;;;;;7.73;93.59;97697.03;5027191;28;20021;-75
2022/12/29 12:15:04;;;;;;;6.45;1.20;;;;;;;7.75;93.29;97686.94;5026545;28;20033;-75
2022/12/29 12:17:49;;;;;;;5.22;1.27;;;;;;;7.71;92.80;97685.88;5021729;28;20040;-77
2022/12/29 12:20:18;;;;;;;8.15;0.98;;;;;;;7.69;92.50;97693.28;5025460;28;20026;-79
2022/12/29 12:22:52;;;;;;;2.47;1.17;;;;;;;7.68;92.53;97697.00;5024587;28;20025;-74
2022/12/29 12:25:21;;;;;;;1.30;1.10;;;;;;;7.75;91.65;97689.59;5018189;28;20029;-74
2022/12/29 12:28:13;;;;;;;3.03;1.15;;;;;;;7.71;92.61;97688.53;5025350;28;20488;-74